sensor_id;sensor_type;location;lat;lon;timestamp;P1;durP1;ratioP1;P2;durP2;ratioP2
9960;SDS011;5021;51.506;11.320;2022-08-01T00:01:01;3.90;;;3.50;;
9960;SDS011;5021;51.506;11.320;2022-08-01T00:03:27;6.93;;;3.37;;
9960;SDS011;5021;51.506;11.320;2022-08-01T00:05:53;3.70;;;3.40;;
9960;SDS011;5021;51.506;11.320;2022-08-01T00:08:19;4.33;;;3.70;;
9960;SDS011;5021;51.506;11.320;2022-08-01T00:10:45;4.00;;;3.57;;
9960;SDS011;5021;51.506;11.320;2022-08-01T00:13:11;4.10;;;3.70;;
9960;SDS011;5021;51.506;11.320;2022-08-01T00:15:37;3.80;;;3.40;;
9960;SDS011;5021;51.506;11.320;2022-08-01T00:18:03;4.33;;;3.37;;
9960;SDS011;5021;51.506;11.320;2022-08-01T00:20:29;3.53;;;3.23;;
9960;SDS011;5021;51.506;11.320;2022-08-01T00:22:55;3.93;;;3.60;;
9960;SDS011;5021;51.506;11.320;2022-08-01T00:25:21;3.80;;;3.50;;
9960;SDS011;5021;51.506;11.320;2022-08-01T00:27:47;4.17;;;3.63;;
9960;SDS011;5021;51.506;11.320;2022-08-01T00:30:13;3.87;;;3.47;;
9960;SDS011;5021;51.506;11.320;2022-08-01T00:32:39;3.80;;;3.50;;
9960;SDS011;5021;51.506;11.320;2022-08-01T00:35:05;3.70;;;3.40;;
9960;SDS011;5021;51.506;11.320;2022-08-01T00:37:31;3.63;;;3.33;;
9960;SDS011;5021;51.506;11.320;2022-08-01T00:39:57;3.97;;;3.67;;
9960;SDS011;5021;51.506;11.320;2022-08-01T00:42:23;3.90;;;3.50;;
9960;SDS011;5021;51.506;11.320;2022-08-01T00:44:49;4.13;;;3.30;;
9960;SDS011;5021;51.506;11.320;2022-08-01T00:47:15;3.93;;;3.43;;
9960;SDS011;5021;51.506;11.320;2022-08-01T00:49:41;3.70;;;3.40;;
9960;SDS011;5021;51.506;11.320;2022-08-01T00:52:07;4.13;;;3.27;;
9960;SDS011;5021;51.506;11.320;2022-08-01T00:54:34;3.60;;;3.30;;
9960;SDS011;5021;51.506;11.320;2022-08-01T00:57:00;5.17;;;3.27;;
9960;SDS011;5021;51.506;11.320;2022-08-01T00:59:26;3.23;;;3.00;;
9960;SDS011;5021;51.506;11.320;2022-08-01T01:01:52;3.60;;;3.30;;
9960;SDS011;5021;51.506;11.320;2022-08-01T01:04:18;5.17;;;3.47;;
9960;SDS011;5021;51.506;11.320;2022-08-01T01:06:47;3.30;;;3.00;;
9960;SDS011;5021;51.506;11.320;2022-08-01T01:09:30;3.40;;;3.10;;
9960;SDS011;5021;51.506;11.320;2022-08-01T01:12:01;4.17;;;3.17;;
9960;SDS011;5021;51.506;11.320;2022-08-01T01:16:57;3.20;;;3.00;;
9960;SDS011;5021;51.506;11.320;2022-08-01T01:19:24;3.50;;;3.20;;
9960;SDS011;5021;51.506;11.320;2022-08-01T01:22:03;3.70;;;3.20;;
9960;SDS011;5021;51.506;11.320;2022-08-01T01:29:32;4.20;;;3.80;;
9960;SDS011;5021;51.506;11.320;2022-08-01T01:32:09;4.20;;;3.80;;
9960;SDS011;5021;51.506;11.320;2022-08-01T01:34:39;5.97;;;3.87;;
9960;SDS011;5021;51.506;11.320;2022-08-01T01:37:08;3.87;;;3.57;;
9960;SDS011;5021;51.506;11.320;2022-08-01T01:39:35;4.23;;;3.90;;
9960;SDS011;5021;51.506;11.320;2022-08-01T01:42:03;4.10;;;3.80;;
9960;SDS011;5021;51.506;11.320;2022-08-01T01:44:30;4.20;;;3.70;;
9960;SDS011;5021;51.506;11.320;2022-08-01T01:46:56;3.93;;;3.53;;
9960;SDS011;5021;51.506;11.320;2022-08-01T01:49:24;5.43;;;4.00;;
9960;SDS011;5021;51.506;11.320;2022-08-01T01:51:51;3.90;;;3.60;;
9960;SDS011;5021;51.506;11.320;2022-08-01T01:54:18;5.20;;;3.90;;
9960;SDS011;5021;51.506;11.320;2022-08-01T01:56:45;4.80;;;3.80;;
9960;SDS011;5021;51.506;11.320;2022-08-01T01:59:36;3.80;;;3.50;;
9960;SDS011;5021;51.506;11.320;2022-08-01T02:02:02;4.57;;;4.17;;
9960;SDS011;5021;51.506;11.320;2022-08-01T02:04:29;4.77;;;4.37;;
9960;SDS011;5021;51.506;11.320;2022-08-01T02:06:56;4.30;;;3.53;;
9960;SDS011;5021;51.506;11.320;2022-08-01T02:09:23;5.00;;;3.70;;
9960;SDS011;5021;51.506;11.320;2022-08-01T02:11:49;4.20;;;3.77;;
9960;SDS011;5021;51.506;11.320;2022-08-01T02:14:16;4.87;;;3.80;;
9960;SDS011;5021;51.506;11.320;2022-08-01T02:16:45;4.27;;;3.97;;
9960;SDS011;5021;51.506;11.320;2022-08-01T02:19:13;5.33;;;4.17;;
9960;SDS011;5021;51.506;11.320;2022-08-01T02:21:40;4.17;;;3.77;;
9960;SDS011;5021;51.506;11.320;2022-08-01T02:24:14;4.33;;;3.93;;
9960;SDS011;5021;51.506;11.320;2022-08-01T02:26:44;3.83;;;3.53;;
9960;SDS011;5021;51.506;11.320;2022-08-01T02:29:13;4.00;;;3.60;;
9960;SDS011;5021;51.506;11.320;2022-08-01T02:31:41;3.90;;;3.60;;
9960;SDS011;5021;51.506;11.320;2022-08-01T02:34:10;3.70;;;3.40;;
9960;SDS011;5021;51.506;11.320;2022-08-01T02:36:38;3.90;;;3.60;;
9960;SDS011;5021;51.506;11.320;2022-08-01T02:39:08;3.80;;;3.50;;
9960;SDS011;5021;51.506;11.320;2022-08-01T02:41:39;3.57;;;3.23;;
9960;SDS011;5021;51.506;11.320;2022-08-01T02:44:06;3.83;;;3.40;;
9960;SDS011;5021;51.506;11.320;2022-08-01T02:46:34;3.60;;;3.23;;
9960;SDS011;5021;51.506;11.320;2022-08-01T02:49:02;3.63;;;3.33;;
9960;SDS011;5021;51.506;11.320;2022-08-01T02:51:30;4.27;;;3.13;;
9960;SDS011;5021;51.506;11.320;2022-08-01T02:53:57;3.53;;;3.23;;
9960;SDS011;5021;51.506;11.320;2022-08-01T02:56:24;3.20;;;3.00;;
9960;SDS011;5021;51.506;11.320;2022-08-01T02:58:59;2.80;;;2.60;;
9960;SDS011;5021;51.506;11.320;2022-08-01T03:01:26;3.87;;;2.80;;
9960;SDS011;5021;51.506;11.320;2022-08-01T03:03:52;3.20;;;2.90;;
9960;SDS011;5021;51.506;11.320;2022-08-01T03:06:18;3.30;;;2.97;;
9960;SDS011;5021;51.506;11.320;2022-08-01T03:08:45;3.43;;;3.00;;
9960;SDS011;5021;51.506;11.320;2022-08-01T03:11:11;2.90;;;2.70;;
9960;SDS011;5021;51.506;11.320;2022-08-01T03:13:38;2.80;;;2.60;;
9960;SDS011;5021;51.506;11.320;2022-08-01T03:16:05;3.00;;;2.70;;
9960;SDS011;5021;51.506;11.320;2022-08-01T03:18:32;3.10;;;2.90;;
9960;SDS011;5021;51.506;11.320;2022-08-01T03:20:58;2.80;;;2.50;;
9960;SDS011;5021;51.506;11.320;2022-08-01T03:23:25;3.20;;;2.90;;
9960;SDS011;5021;51.506;11.320;2022-08-01T03:25:52;3.23;;;2.93;;
9960;SDS011;5021;51.506;11.320;2022-08-01T03:28:18;3.27;;;3.00;;
9960;SDS011;5021;51.506;11.320;2022-08-01T03:30:47;2.93;;;2.73;;
9960;SDS011;5021;51.506;11.320;2022-08-01T03:33:14;3.17;;;2.73;;
9960;SDS011;5021;51.506;11.320;2022-08-01T03:35:42;3.13;;;2.83;;
9960;SDS011;5021;51.506;11.320;2022-08-01T03:38:10;3.00;;;2.80;;
9960;SDS011;5021;51.506;11.320;2022-08-01T03:40:41;2.60;;;2.40;;
9960;SDS011;5021;51.506;11.320;2022-08-01T03:43:16;4.20;;;3.13;;
9960;SDS011;5021;51.506;11.320;2022-08-01T03:45:46;2.87;;;2.67;;
9960;SDS011;5021;51.506;11.320;2022-08-01T03:48:14;3.93;;;2.87;;
9960;SDS011;5021;51.506;11.320;2022-08-01T03:50:43;2.90;;;2.70;;
9960;SDS011;5021;51.506;11.320;2022-08-01T03:53:09;4.27;;;3.03;;
9960;SDS011;5021;51.506;11.320;2022-08-01T03:55:37;4.20;;;3.00;;
9960;SDS011;5021;51.506;11.320;2022-08-01T03:58:04;4.70;;;2.53;;
9960;SDS011;5021;51.506;11.320;2022-08-01T04:00:31;3.90;;;2.80;;
9960;SDS011;5021;51.506;11.320;2022-08-01T04:02:57;3.53;;;3.23;;
9960;SDS011;5021;51.506;11.320;2022-08-01T04:05:24;3.20;;;2.90;;
9960;SDS011;5021;51.506;11.320;2022-08-01T04:07:50;3.07;;;2.73;;
9960;SDS011;5021;51.506;11.320;2022-08-01T05:14:41;1.60;;;1.50;;
9960;SDS011;5021;51.506;11.320;2022-08-01T05:17:08;1.90;;;1.63;;
9960;SDS011;5021;51.506;11.320;2022-08-01T05:19:49;1.40;;;1.30;;
9960;SDS011;5021;51.506;11.320;2022-08-01T05:22:37;2.50;;;1.47;;
9960;SDS011;5021;51.506;11.320;2022-08-01T05:25:03;1.77;;;1.40;;
9960;SDS011;5021;51.506;11.320;2022-08-01T05:27:30;1.50;;;1.40;;
9960;SDS011;5021;51.506;11.320;2022-08-01T05:29:56;1.37;;;1.27;;
9960;SDS011;5021;51.506;11.320;2022-08-01T05:32:22;1.20;;;1.10;;
9960;SDS011;5021;51.506;11.320;2022-08-01T05:34:48;1.57;;;1.47;;
9960;SDS011;5021;51.506;11.320;2022-08-01T05:37:14;1.60;;;1.40;;
9960;SDS011;5021;51.506;11.320;2022-08-01T05:39:40;1.70;;;1.33;;
9960;SDS011;5021;51.506;11.320;2022-08-01T05:42:06;1.30;;;1.20;;
9960;SDS011;5021;51.506;11.320;2022-08-01T05:44:32;1.73;;;1.60;;
9960;SDS011;5021;51.506;11.320;2022-08-01T05:46:58;1.33;;;1.23;;
9960;SDS011;5021;51.506;11.320;2022-08-01T05:49:24;1.57;;;1.10;;
9960;SDS011;5021;51.506;11.320;2022-08-01T05:51:50;2.17;;;1.20;;
9960;SDS011;5021;51.506;11.320;2022-08-01T05:54:17;1.50;;;1.00;;
9960;SDS011;5021;51.506;11.320;2022-08-01T05:56:43;1.30;;;1.00;;
9960;SDS011;5021;51.506;11.320;2022-08-01T05:59:09;1.87;;;1.20;;
9960;SDS011;5021;51.506;11.320;2022-08-01T06:01:35;0.93;;;0.80;;
9960;SDS011;5021;51.506;11.320;2022-08-01T06:04:01;2.63;;;0.90;;
9960;SDS011;5021;51.506;11.320;2022-08-01T06:06:27;1.53;;;0.97;;
9960;SDS011;5021;51.506;11.320;2022-08-01T06:08:53;0.87;;;0.87;;
9960;SDS011;5021;51.506;11.320;2022-08-01T06:11:19;1.23;;;0.90;;
9960;SDS011;5021;51.506;11.320;2022-08-01T06:13:45;0.90;;;0.90;;
9960;SDS011;5021;51.506;11.320;2022-08-01T06:16:11;1.03;;;0.93;;
9960;SDS011;5021;51.506;11.320;2022-08-01T06:18:37;1.30;;;0.90;;
9960;SDS011;5021;51.506;11.320;2022-08-01T06:21:03;1.87;;;1.20;;
9960;SDS011;5021;51.506;11.320;2022-08-01T06:23:29;1.33;;;1.03;;
9960;SDS011;5021;51.506;11.320;2022-08-01T06:25:55;1.70;;;1.10;;
9960;SDS011;5021;51.506;11.320;2022-08-01T06:28:23;1.20;;;1.07;;
9960;SDS011;5021;51.506;11.320;2022-08-01T06:30:49;1.13;;;1.03;;
9960;SDS011;5021;51.506;11.320;2022-08-01T06:33:15;1.30;;;1.07;;
9960;SDS011;5021;51.506;11.320;2022-08-01T06:35:41;1.73;;;1.30;;
9960;SDS011;5021;51.506;11.320;2022-08-01T06:38:07;2.87;;;1.23;;
9960;SDS011;5021;51.506;11.320;2022-08-01T06:40:33;1.07;;;1.00;;
9960;SDS011;5021;51.506;11.320;2022-08-01T06:42:59;2.53;;;1.10;;
9960;SDS011;5021;51.506;11.320;2022-08-01T06:45:25;1.10;;;0.90;;
9960;SDS011;5021;51.506;11.320;2022-08-01T06:47:52;1.10;;;0.97;;
9960;SDS011;5021;51.506;11.320;2022-08-01T06:50:18;1.85;;;1.10;;
9960;SDS011;5021;51.506;11.320;2022-08-01T06:52:44;0.90;;;0.90;;
9960;SDS011;5021;51.506;11.320;2022-08-01T06:55:10;1.35;;;1.13;;
9960;SDS011;5021;51.506;11.320;2022-08-01T06:57:36;2.13;;;1.10;;
9960;SDS011;5021;51.506;11.320;2022-08-01T07:00:06;1.10;;;0.90;;
9960;SDS011;5021;51.506;11.320;2022-08-01T07:02:34;1.53;;;1.07;;
9960;SDS011;5021;51.506;11.320;2022-08-01T07:05:01;1.07;;;0.97;;
9960;SDS011;5021;51.506;11.320;2022-08-01T07:07:28;1.30;;;0.87;;
9960;SDS011;5021;51.506;11.320;2022-08-01T07:09:55;1.27;;;0.90;;
9960;SDS011;5021;51.506;11.320;2022-08-01T07:12:21;0.87;;;0.73;;
9960;SDS011;5021;51.506;11.320;2022-08-01T07:14:47;0.80;;;0.80;;
9960;SDS011;5021;51.506;11.320;2022-08-01T07:17:13;0.73;;;0.73;;
9960;SDS011;5021;51.506;11.320;2022-08-01T07:19:39;1.00;;;0.90;;
9960;SDS011;5021;51.506;11.320;2022-08-01T07:22:05;0.67;;;0.67;;
9960;SDS011;5021;51.506;11.320;2022-08-01T07:24:31;1.30;;;1.20;;
9960;SDS011;5021;51.506;11.320;2022-08-01T07:26:57;1.00;;;1.00;;
9960;SDS011;5021;51.506;11.320;2022-08-01T07:29:26;2.70;;;0.80;;
9960;SDS011;5021;51.506;11.320;2022-08-01T07:31:52;1.30;;;0.97;;
9960;SDS011;5021;51.506;11.320;2022-08-01T07:34:19;0.97;;;0.67;;
9960;SDS011;5021;51.506;11.320;2022-08-01T07:36:45;1.27;;;0.97;;
9960;SDS011;5021;51.506;11.320;2022-08-01T07:39:11;1.13;;;0.93;;
9960;SDS011;5021;51.506;11.320;2022-08-01T07:41:37;1.87;;;0.93;;
9960;SDS011;5021;51.506;11.320;2022-08-01T07:44:03;1.63;;;0.90;;
9960;SDS011;5021;51.506;11.320;2022-08-01T07:46:29;0.70;;;0.70;;
9960;SDS011;5021;51.506;11.320;2022-08-01T07:48:56;1.87;;;0.90;;
9960;SDS011;5021;51.506;11.320;2022-08-01T07:51:22;1.00;;;0.77;;
9960;SDS011;5021;51.506;11.320;2022-08-01T07:53:48;0.47;;;0.47;;
9960;SDS011;5021;51.506;11.320;2022-08-01T07:56:14;1.57;;;0.83;;
9960;SDS011;5021;51.506;11.320;2022-08-01T07:58:40;0.70;;;0.70;;
9960;SDS011;5021;51.506;11.320;2022-08-01T08:01:06;0.70;;;0.70;;
9960;SDS011;5021;51.506;11.320;2022-08-01T08:03:32;0.70;;;0.70;;
9960;SDS011;5021;51.506;11.320;2022-08-01T08:05:58;1.97;;;0.87;;
9960;SDS011;5021;51.506;11.320;2022-08-01T08:08:24;1.07;;;0.80;;
9960;SDS011;5021;51.506;11.320;2022-08-01T08:10:50;0.60;;;0.60;;
9960;SDS011;5021;51.506;11.320;2022-08-01T08:13:16;0.67;;;0.67;;
9960;SDS011;5021;51.506;11.320;2022-08-01T08:15:42;1.67;;;0.60;;
9960;SDS011;5021;51.506;11.320;2022-08-01T08:18:08;0.83;;;0.80;;
9960;SDS011;5021;51.506;11.320;2022-08-01T08:20:34;0.80;;;0.80;;
9960;SDS011;5021;51.506;11.320;2022-08-01T08:23:00;1.00;;;0.90;;
9960;SDS011;5021;51.506;11.320;2022-08-01T08:25:26;0.60;;;0.60;;
9960;SDS011;5021;51.506;11.320;2022-08-01T08:27:53;0.53;;;0.53;;
9960;SDS011;5021;51.506;11.320;2022-08-01T08:30:19;0.67;;;0.67;;
9960;SDS011;5021;51.506;11.320;2022-08-01T08:32:45;0.40;;;0.40;;
9960;SDS011;5021;51.506;11.320;2022-08-01T08:35:12;0.40;;;0.40;;
9960;SDS011;5021;51.506;11.320;2022-08-01T08:37:38;1.73;;;0.73;;
9960;SDS011;5021;51.506;11.320;2022-08-01T08:40:04;0.87;;;0.50;;
9960;SDS011;5021;51.506;11.320;2022-08-01T08:42:30;0.20;;;0.20;;
9960;SDS011;5021;51.506;11.320;2022-08-01T08:44:56;0.30;;;0.30;;
9960;SDS011;5021;51.506;11.320;2022-08-01T08:47:22;0.50;;;0.50;;
9960;SDS011;5021;51.506;11.320;2022-08-01T08:49:53;1.00;;;0.90;;
9960;SDS011;5021;51.506;11.320;2022-08-01T08:52:20;0.77;;;0.77;;
9960;SDS011;5021;51.506;11.320;2022-08-01T08:54:47;0.70;;;0.70;;
9960;SDS011;5021;51.506;11.320;2022-08-01T08:57:13;1.13;;;0.80;;
9960;SDS011;5021;51.506;11.320;2022-08-01T08:59:39;1.33;;;0.80;;
9960;SDS011;5021;51.506;11.320;2022-08-01T09:02:07;0.77;;;0.77;;
9960;SDS011;5021;51.506;11.320;2022-08-01T09:04:34;0.90;;;0.90;;
9960;SDS011;5021;51.506;11.320;2022-08-01T09:07:01;1.20;;;0.90;;
9960;SDS011;5021;51.506;11.320;2022-08-01T09:09:27;1.53;;;0.80;;
9960;SDS011;5021;51.506;11.320;2022-08-01T09:11:54;1.07;;;0.90;;
9960;SDS011;5021;51.506;11.320;2022-08-01T09:14:21;3.07;;;0.90;;
9960;SDS011;5021;51.506;11.320;2022-08-01T09:16:58;2.23;;;1.00;;
9960;SDS011;5021;51.506;11.320;2022-08-01T09:19:25;0.70;;;0.70;;
9960;SDS011;5021;51.506;11.320;2022-08-01T09:22:01;0.80;;;0.80;;
9960;SDS011;5021;51.506;11.320;2022-08-01T09:24:28;1.40;;;1.07;;
9960;SDS011;5021;51.506;11.320;2022-08-01T09:26:54;0.77;;;0.77;;
9960;SDS011;5021;51.506;11.320;2022-08-01T09:29:25;0.80;;;0.80;;
9960;SDS011;5021;51.506;11.320;2022-08-01T09:31:52;0.90;;;0.90;;
9960;SDS011;5021;51.506;11.320;2022-08-01T09:34:25;2.77;;;0.90;;
9960;SDS011;5021;51.506;11.320;2022-08-01T09:36:55;0.70;;;0.70;;
9960;SDS011;5021;51.506;11.320;2022-08-01T09:39:25;0.67;;;0.63;;
9960;SDS011;5021;51.506;11.320;2022-08-01T09:41:51;0.90;;;0.90;;
9960;SDS011;5021;51.506;11.320;2022-08-01T09:44:18;1.87;;;0.97;;
9960;SDS011;5021;51.506;11.320;2022-08-01T09:46:55;0.97;;;0.77;;
9960;SDS011;5021;51.506;11.320;2022-08-01T09:49:31;0.70;;;0.70;;
9960;SDS011;5021;51.506;11.320;2022-08-01T09:51:58;1.00;;;0.90;;
9960;SDS011;5021;51.506;11.320;2022-08-01T09:54:28;0.60;;;0.60;;
9960;SDS011;5021;51.506;11.320;2022-08-01T09:56:55;0.87;;;0.87;;
9960;SDS011;5021;51.506;11.320;2022-08-01T09:59:36;1.00;;;0.90;;
9960;SDS011;5021;51.506;11.320;2022-08-01T10:02:09;0.80;;;0.60;;
9960;SDS011;5021;51.506;11.320;2022-08-01T10:04:38;0.67;;;0.60;;
9960;SDS011;5021;51.506;11.320;2022-08-01T10:07:11;1.10;;;0.70;;
9960;SDS011;5021;51.506;11.320;2022-08-01T10:09:40;0.70;;;0.70;;
9960;SDS011;5021;51.506;11.320;2022-08-01T10:12:06;1.20;;;0.80;;
9960;SDS011;5021;51.506;11.320;2022-08-01T10:14:32;0.70;;;0.67;;
9960;SDS011;5021;51.506;11.320;2022-08-01T10:16:59;1.00;;;0.90;;
9960;SDS011;5021;51.506;11.320;2022-08-01T10:19:26;1.00;;;1.00;;
9960;SDS011;5021;51.506;11.320;2022-08-01T10:21:53;0.80;;;0.80;;
9960;SDS011;5021;51.506;11.320;2022-08-01T10:24:20;0.70;;;0.70;;
9960;SDS011;5021;51.506;11.320;2022-08-01T10:26:51;1.07;;;0.90;;
9960;SDS011;5021;51.506;11.320;2022-08-01T10:29:17;0.93;;;0.90;;
9960;SDS011;5021;51.506;11.320;2022-08-01T10:31:44;0.73;;;0.73;;
9960;SDS011;5021;51.506;11.320;2022-08-01T10:34:10;1.73;;;0.87;;
9960;SDS011;5021;51.506;11.320;2022-08-01T10:36:37;0.77;;;0.77;;
9960;SDS011;5021;51.506;11.320;2022-08-01T10:39:05;0.83;;;0.50;;
9960;SDS011;5021;51.506;11.320;2022-08-01T10:41:31;2.50;;;0.80;;
9960;SDS011;5021;51.506;11.320;2022-08-01T10:44:00;1.10;;;0.97;;
9960;SDS011;5021;51.506;11.320;2022-08-01T10:46:27;0.73;;;0.73;;
9960;SDS011;5021;51.506;11.320;2022-08-01T10:48:55;1.10;;;1.10;;
9960;SDS011;5021;51.506;11.320;2022-08-01T10:51:24;0.80;;;0.80;;
9960;SDS011;5021;51.506;11.320;2022-08-01T10:53:51;0.60;;;0.60;;
9960;SDS011;5021;51.506;11.320;2022-08-01T10:56:18;0.60;;;0.60;;
9960;SDS011;5021;51.506;11.320;2022-08-01T10:58:44;2.97;;;0.73;;
9960;SDS011;5021;51.506;11.320;2022-08-01T11:01:20;0.80;;;0.50;;
9960;SDS011;5021;51.506;11.320;2022-08-01T11:06:25;1.00;;;0.80;;
9960;SDS011;5021;51.506;11.320;2022-08-01T11:08:52;0.40;;;0.40;;
9960;SDS011;5021;51.506;11.320;2022-08-01T11:11:19;0.80;;;0.80;;
9960;SDS011;5021;51.506;11.320;2022-08-01T11:16:26;1.15;;;0.70;;
9960;SDS011;5021;51.506;11.320;2022-08-01T11:18:52;0.50;;;0.50;;
9960;SDS011;5021;51.506;11.320;2022-08-01T11:21:18;0.32;;;0.32;;
9960;SDS011;5021;51.506;11.320;2022-08-01T11:23:48;0.82;;;0.65;;
9960;SDS011;5021;51.506;11.320;2022-08-01T11:26:15;0.60;;;0.60;;
9960;SDS011;5021;51.506;11.320;2022-08-01T11:28:42;7.27;;;2.10;;
9960;SDS011;5021;51.506;11.320;2022-08-01T11:51:57;2.47;;;1.80;;
9960;SDS011;5021;51.506;11.320;2022-08-01T11:54:27;1.20;;;1.10;;
9960;SDS011;5021;51.506;11.320;2022-08-01T11:57:00;2.10;;;1.70;;
9960;SDS011;5021;51.506;11.320;2022-08-01T11:59:26;2.20;;;1.60;;
9960;SDS011;5021;51.506;11.320;2022-08-01T12:01:52;1.90;;;1.50;;
9960;SDS011;5021;51.506;11.320;2022-08-01T12:04:18;1.60;;;1.13;;
9960;SDS011;5021;51.506;11.320;2022-08-01T12:06:45;1.00;;;0.80;;
9960;SDS011;5021;51.506;11.320;2022-08-01T12:09:15;1.27;;;0.90;;
9960;SDS011;5021;51.506;11.320;2022-08-01T12:11:41;0.83;;;0.80;;
9960;SDS011;5021;51.506;11.320;2022-08-01T12:14:07;2.50;;;1.17;;
9960;SDS011;5021;51.506;11.320;2022-08-01T12:16:33;1.00;;;1.00;;
9960;SDS011;5021;51.506;11.320;2022-08-01T12:18:59;1.17;;;0.90;;
9960;SDS011;5021;51.506;11.320;2022-08-01T12:21:25;0.90;;;0.90;;
9960;SDS011;5021;51.506;11.320;2022-08-01T12:24:01;1.20;;;1.03;;
9960;SDS011;5021;51.506;11.320;2022-08-01T12:26:42;0.70;;;0.70;;
9960;SDS011;5021;51.506;11.320;2022-08-01T12:29:08;1.10;;;0.80;;
9960;SDS011;5021;51.506;11.320;2022-08-01T12:31:34;1.70;;;1.00;;
9960;SDS011;5021;51.506;11.320;2022-08-01T12:36:45;0.60;;;0.60;;
9960;SDS011;5021;51.506;11.320;2022-08-01T12:39:11;0.80;;;0.80;;
9960;SDS011;5021;51.506;11.320;2022-08-01T12:41:37;0.90;;;0.80;;
9960;SDS011;5021;51.506;11.320;2022-08-01T12:44:06;0.50;;;0.50;;
9960;SDS011;5021;51.506;11.320;2022-08-01T12:46:39;0.60;;;0.50;;
9960;SDS011;5021;51.506;11.320;2022-08-01T12:49:05;0.50;;;0.50;;
9960;SDS011;5021;51.506;11.320;2022-08-01T12:51:31;0.80;;;0.80;;
9960;SDS011;5021;51.506;11.320;2022-08-01T12:54:00;0.83;;;0.80;;
9960;SDS011;5021;51.506;11.320;2022-08-01T12:56:34;0.60;;;0.60;;
9960;SDS011;5021;51.506;11.320;2022-08-01T12:59:00;1.33;;;0.70;;
9960;SDS011;5021;51.506;11.320;2022-08-01T13:01:26;0.93;;;0.67;;
9960;SDS011;5021;51.506;11.320;2022-08-01T13:03:59;0.73;;;0.70;;
9960;SDS011;5021;51.506;11.320;2022-08-01T13:06:27;0.60;;;0.60;;
9960;SDS011;5021;51.506;11.320;2022-08-01T13:08:54;0.80;;;0.80;;
9960;SDS011;5021;51.506;11.320;2022-08-01T13:11:20;0.90;;;0.90;;
9960;SDS011;5021;51.506;11.320;2022-08-01T13:13:47;0.80;;;0.80;;
9960;SDS011;5021;51.506;11.320;2022-08-01T13:16:13;0.80;;;0.80;;
9960;SDS011;5021;51.506;11.320;2022-08-01T13:18:39;1.47;;;1.00;;
9960;SDS011;5021;51.506;11.320;2022-08-01T13:23:35;1.30;;;0.80;;
9960;SDS011;5021;51.506;11.320;2022-08-01T13:26:01;1.23;;;1.13;;
9960;SDS011;5021;51.506;11.320;2022-08-01T13:28:27;3.70;;;1.23;;
9960;SDS011;5021;51.506;11.320;2022-08-01T13:31:04;1.83;;;1.10;;
9960;SDS011;5021;51.506;11.320;2022-08-01T13:33:43;0.90;;;0.90;;
9960;SDS011;5021;51.506;11.320;2022-08-01T13:36:09;1.10;;;1.00;;
9960;SDS011;5021;51.506;11.320;2022-08-01T13:38:35;1.03;;;0.80;;
9960;SDS011;5021;51.506;11.320;2022-08-01T13:41:20;1.10;;;1.00;;
9960;SDS011;5021;51.506;11.320;2022-08-01T13:43:46;1.97;;;0.80;;
9960;SDS011;5021;51.506;11.320;2022-08-01T13:46:12;1.13;;;0.50;;
9960;SDS011;5021;51.506;11.320;2022-08-01T13:48:38;0.93;;;0.90;;
9960;SDS011;5021;51.506;11.320;2022-08-01T13:51:04;1.17;;;1.07;;
9960;SDS011;5021;51.506;11.320;2022-08-01T13:53:30;0.87;;;0.83;;
9960;SDS011;5021;51.506;11.320;2022-08-01T13:55:56;1.00;;;0.90;;
9960;SDS011;5021;51.506;11.320;2022-08-01T13:58:22;1.10;;;1.00;;
9960;SDS011;5021;51.506;11.320;2022-08-01T14:00:48;1.67;;;0.83;;
9960;SDS011;5021;51.506;11.320;2022-08-01T14:03:14;1.97;;;1.00;;
9960;SDS011;5021;51.506;11.320;2022-08-01T14:05:41;1.23;;;1.00;;
9960;SDS011;5021;51.506;11.320;2022-08-01T14:08:07;0.73;;;0.70;;
9960;SDS011;5021;51.506;11.320;2022-08-01T14:10:34;0.77;;;0.70;;
9960;SDS011;5021;51.506;11.320;2022-08-01T14:13:00;0.77;;;0.77;;
9960;SDS011;5021;51.506;11.320;2022-08-01T14:15:26;0.57;;;0.57;;
9960;SDS011;5021;51.506;11.320;2022-08-01T14:17:52;1.53;;;0.83;;
9960;SDS011;5021;51.506;11.320;2022-08-01T14:20:18;1.93;;;0.73;;
9960;SDS011;5021;51.506;11.320;2022-08-01T14:22:47;0.60;;;0.60;;
9960;SDS011;5021;51.506;11.320;2022-08-01T14:25:14;0.60;;;0.60;;
9960;SDS011;5021;51.506;11.320;2022-08-01T14:27:40;1.03;;;0.53;;
9960;SDS011;5021;51.506;11.320;2022-08-01T14:30:07;0.50;;;0.50;;
9960;SDS011;5021;51.506;11.320;2022-08-01T14:32:33;1.23;;;0.67;;
9960;SDS011;5021;51.506;11.320;2022-08-01T14:35:00;1.33;;;0.57;;
9960;SDS011;5021;51.506;11.320;2022-08-01T14:37:26;0.67;;;0.67;;
9960;SDS011;5021;51.506;11.320;2022-08-01T14:39:54;0.93;;;0.90;;
9960;SDS011;5021;51.506;11.320;2022-08-01T14:42:20;2.10;;;0.90;;
9960;SDS011;5021;51.506;11.320;2022-08-01T14:44:46;1.50;;;0.70;;
9960;SDS011;5021;51.506;11.320;2022-08-01T14:47:12;0.80;;;0.80;;
9960;SDS011;5021;51.506;11.320;2022-08-01T14:49:37;1.00;;;0.90;;
9960;SDS011;5021;51.506;11.320;2022-08-01T14:52:03;1.33;;;0.80;;
9960;SDS011;5021;51.506;11.320;2022-08-01T14:54:29;0.80;;;0.80;;
9960;SDS011;5021;51.506;11.320;2022-08-01T14:56:55;0.80;;;0.80;;
9960;SDS011;5021;51.506;11.320;2022-08-01T14:59:21;1.17;;;0.90;;
9960;SDS011;5021;51.506;11.320;2022-08-01T15:01:47;1.17;;;1.07;;
9960;SDS011;5021;51.506;11.320;2022-08-01T15:04:13;0.97;;;0.87;;
9960;SDS011;5021;51.506;11.320;2022-08-01T15:06:39;2.50;;;1.17;;
9960;SDS011;5021;51.506;11.320;2022-08-01T15:09:05;1.00;;;1.00;;
9960;SDS011;5021;51.506;11.320;2022-08-01T15:11:31;0.93;;;0.90;;
9960;SDS011;5021;51.506;11.320;2022-08-01T15:13:57;0.83;;;0.83;;
9960;SDS011;5021;51.506;11.320;2022-08-01T15:16:42;1.10;;;1.00;;
9960;SDS011;5021;51.506;11.320;2022-08-01T15:19:08;1.20;;;1.07;;
9960;SDS011;5021;51.506;11.320;2022-08-01T15:21:34;1.60;;;0.83;;
9960;SDS011;5021;51.506;11.320;2022-08-01T15:24:00;2.20;;;1.20;;
9960;SDS011;5021;51.506;11.320;2022-08-01T15:26:26;1.00;;;1.00;;
9960;SDS011;5021;51.506;11.320;2022-08-01T15:28:53;2.13;;;1.23;;
9960;SDS011;5021;51.506;11.320;2022-08-01T15:31:19;0.97;;;0.90;;
9960;SDS011;5021;51.506;11.320;2022-08-01T15:33:45;0.90;;;0.90;;
9960;SDS011;5021;51.506;11.320;2022-08-01T15:36:11;0.87;;;0.87;;
9960;SDS011;5021;51.506;11.320;2022-08-01T15:38:37;2.20;;;1.13;;
9960;SDS011;5021;51.506;11.320;2022-08-01T15:41:03;2.27;;;1.20;;
9960;SDS011;5021;51.506;11.320;2022-08-01T15:43:29;1.20;;;1.10;;
9960;SDS011;5021;51.506;11.320;2022-08-01T15:45:55;1.27;;;1.03;;
9960;SDS011;5021;51.506;11.320;2022-08-01T15:48:21;2.83;;;1.13;;
9960;SDS011;5021;51.506;11.320;2022-08-01T15:50:47;2.00;;;1.30;;
9960;SDS011;5021;51.506;11.320;2022-08-01T15:53:13;1.87;;;1.37;;
9960;SDS011;5021;51.506;11.320;2022-08-01T15:55:39;2.17;;;1.60;;
9960;SDS011;5021;51.506;11.320;2022-08-01T15:58:05;1.50;;;1.40;;
9960;SDS011;5021;51.506;11.320;2022-08-01T16:00:32;1.30;;;1.20;;
9960;SDS011;5021;51.506;11.320;2022-08-01T16:02:58;1.33;;;1.23;;
9960;SDS011;5021;51.506;11.320;2022-08-01T16:05:24;1.40;;;1.30;;
9960;SDS011;5021;51.506;11.320;2022-08-01T16:07:50;1.57;;;1.47;;
9960;SDS011;5021;51.506;11.320;2022-08-01T16:10:16;1.87;;;1.70;;
9960;SDS011;5021;51.506;11.320;2022-08-01T16:12:42;1.67;;;1.57;;
9960;SDS011;5021;51.506;11.320;2022-08-01T16:15:08;1.53;;;1.37;;
9960;SDS011;5021;51.506;11.320;2022-08-01T16:17:35;1.83;;;1.60;;
9960;SDS011;5021;51.506;11.320;2022-08-01T16:20:01;1.70;;;1.60;;
9960;SDS011;5021;51.506;11.320;2022-08-01T16:22:27;2.67;;;1.53;;
9960;SDS011;5021;51.506;11.320;2022-08-01T16:24:53;2.30;;;1.60;;
9960;SDS011;5021;51.506;11.320;2022-08-01T16:27:19;2.13;;;1.60;;
9960;SDS011;5021;51.506;11.320;2022-08-01T16:29:45;1.67;;;1.50;;
9960;SDS011;5021;51.506;11.320;2022-08-01T16:32:12;1.80;;;1.70;;
9960;SDS011;5021;51.506;11.320;2022-08-01T16:34:38;1.60;;;1.50;;
9960;SDS011;5021;51.506;11.320;2022-08-01T16:37:04;2.17;;;1.67;;
9960;SDS011;5021;51.506;11.320;2022-08-01T16:39:30;1.73;;;1.63;;
9960;SDS011;5021;51.506;11.320;2022-08-01T16:41:56;1.60;;;1.50;;
9960;SDS011;5021;51.506;11.320;2022-08-01T16:44:22;4.00;;;1.70;;